Terminal Aerodrome Forecast
Issued by NWS Tuscon, AZ

Home | Current Version | Previous Version | Text Only | Print | Product List | Glossary On
Versions: 1 2 3 4 5 6 7 8 9 10 11 12 13 14 15 16 17 18 19 20
000
FTUS45 KTWC 201100
TAFDUG
TAF
KDUG 201132Z 2012/2112 11004KT P6SM BKN070
     FM201900 17005KT P6SM VCSH SCT050 BKN070
     FM202300 24008KT P6SM FEW050 BKN070
     FM210300 35007KT P6SM SCT080=

USA.gov is the U.S. government's official web portal to all federal, state and local government web resources and services.